Time;durP1;ratioP1;P1;durP2;ratioP2;P2;SDS_P1;SDS_P2;PMS_P1;PMS_P2;Temp;Humidity;BMP_temperature;BMP_pressure;BME280_temperature;BME280_humidity;BME280_pressure;Samples;Min_cycle;Max_cycle;Signal;HPM_P1;HPM_P2
2023/03/05 00:00:54;;;;;;;1.98;0.43;;;;;;;;;;10220395;28;20218;-78
2023/03/05 00:05:56;;;;;;;1.75;0.25;;;;;;;;;;10194949;28;20378;-78
2023/03/05 00:10:58;;;;;;;2.33;0.20;;;;;;;;;;10214787;28;20225;-78
2023/03/05 00:16:01;;;;;;;6.78;0.40;;;;;;;;;;10220903;28;20227;-76
2023/03/05 00:21:02;;;;;;;1.90;0.20;;;;;;;;;;10218377;28;20230;-77
2023/03/05 00:26:06;;;;;;;2.40;0.20;;;;;;;;;;10219527;28;20233;-75
2023/03/05 00:31:07;;;;;;;3.20;0.22;;;;;;;;;;10220358;28;20213;-78
2023/03/05 00:36:08;;;;;;;1.98;0.50;;;;;;;;;;10216843;28;20696;-78
2023/03/05 00:41:10;;;;;;;1.20;0.10;;;;;;;;;;10203228;28;20226;-76
2023/03/05 00:46:11;;;;;;;1.35;0.22;;;;;;;;;;10208750;28;20242;-74
2023/03/05 00:51:12;;;;;;;0.95;0.20;;;;;;;;;;10215371;28;20381;-78
2023/03/05 00:56:13;;;;;;;2.10;0.30;;;;;;;;;;10222726;28;20234;-76
2023/03/05 01:01:14;;;;;;;2.20;0.20;;;;;;;;;;10214635;28;20230;-79
2023/03/05 01:06:17;;;;;;;1.23;0.30;;;;;;;;;;10216685;28;20218;-76
2023/03/05 01:11:18;;;;;;;1.15;0.40;;;;;;;;;;10204284;28;20206;-78
2023/03/05 01:16:19;;;;;;;2.28;0.32;;;;;;;;;;10218099;28;20600;-79
2023/03/05 01:21:20;;;;;;;6.63;0.88;;;;;;;;;;10218278;28;20273;-78
2023/03/05 01:26:22;;;;;;;3.60;0.45;;;;;;;;;;10204025;28;20226;-79
2023/03/05 01:31:23;;;;;;;1.75;0.55;;;;;;;;;;10223002;28;20221;-77
2023/03/05 01:36:24;;;;;;;0.40;0.30;;;;;;;;;;10214496;28;20231;-78
2023/03/05 01:41:25;;;;;;;1.08;0.40;;;;;;;;;;10210357;28;20599;-76
2023/03/05 01:46:31;;;;;;;1.45;0.88;;;;;;;;;;10197311;28;20219;-79
2023/03/05 01:51:36;;;;;;;2.58;0.75;;;;;;;;;;10211063;28;20218;-79
2023/03/05 01:56:37;;;;;;;3.25;0.88;;;;;;;;;;10200594;28;20230;-78
2023/03/05 02:01:40;;;;;;;1.67;0.77;;;;;;;;;;10200798;28;20872;-76
2023/03/05 02:06:43;;;;;;;1.90;1.00;;;;;;;;;;10203239;28;20256;-78
2023/03/05 02:11:44;;;;;;;0.80;0.60;;;;;;;;;;10211912;28;20742;-77
2023/03/05 02:16:45;;;;;;;3.40;1.05;;;;;;;;;;10212446;28;20226;-78
2023/03/05 02:21:48;;;;;;;1.75;1.30;;;;;;;;;;10225529;28;20293;-78
2023/03/05 02:26:49;;;;;;;4.45;1.08;;;;;;;;;;10218338;28;20215;-75
2023/03/05 02:31:50;;;;;;;1.05;1.00;;;;;;;;;;10227424;28;20218;-76
2023/03/05 02:36:54;;;;;;;5.05;1.08;;;;;;;;;;10215469;28;21152;-77
2023/03/05 02:41:56;;;;;;;5.90;1.00;;;;;;;;;;10210103;28;20735;-77
2023/03/05 02:46:57;;;;;;;3.47;1.20;;;;;;;;;;10210316;28;20215;-80
2023/03/05 02:51:59;;;;;;;2.25;0.80;;;;;;;;;;10217596;28;20446;-75
2023/03/05 02:57:00;;;;;;;1.92;0.98;;;;;;;;;;10196851;28;20281;-76
2023/03/05 03:02:01;;;;;;;1.60;0.90;;;;;;;;;;10211471;28;20342;-76
2023/03/05 03:07:03;;;;;;;2.50;1.23;;;;;;;;;;10214561;28;20807;-78
2023/03/05 03:12:04;;;;;;;2.67;0.70;;;;;;;;;;10201052;28;20262;-77
2023/03/05 03:17:06;;;;;;;1.08;0.70;;;;;;;;;;10216888;28;20253;-80
2023/03/05 03:22:08;;;;;;;2.10;0.63;;;;;;;;;;10196435;28;20286;-77
2023/03/05 03:27:09;;;;;;;2.63;1.15;;;;;;;;;;10187380;28;20273;-78
2023/03/05 03:32:10;;;;;;;0.57;0.55;;;;;;;;;;10180188;28;21994;-76
2023/03/05 03:37:12;;;;;;;0.73;0.73;;;;;;;;;;10216987;28;20735;-79
2023/03/05 03:42:16;;;;;;;4.45;1.20;;;;;;;;;;10211046;28;20226;-78
2023/03/05 03:47:17;;;;;;;2.42;1.00;;;;;;;;;;10208819;28;21727;-77
2023/03/05 03:52:18;;;;;;;2.63;1.80;;;;;;;;;;10208276;28;20221;-77
2023/03/05 03:57:19;;;;;;;2.50;1.27;;;;;;;;;;10212705;28;20221;-79
2023/03/05 04:02:20;;;;;;;2.67;1.83;;;;;;;;;;10210498;28;20305;-78
2023/03/05 04:07:22;;;;;;;8.98;2.50;;;;;;;;;;10196833;28;20222;-78
2023/03/05 04:12:23;;;;;;;5.05;1.60;;;;;;;;;;10199963;28;20224;-77
2023/03/05 04:17:24;;;;;;;3.25;1.85;;;;;;;;;;10193568;28;20292;-75
2023/03/05 04:22:25;;;;;;;5.00;2.00;;;;;;;;;;10219535;28;20221;-74
2023/03/05 04:27:26;;;;;;;2.50;2.30;;;;;;;;;;10221210;28;20222;-78
2023/03/05 04:32:28;;;;;;;2.97;1.83;;;;;;;;;;10213351;28;20233;-78
2023/03/05 04:37:29;;;;;;;2.90;1.95;;;;;;;;;;10219051;28;20226;-78
2023/03/05 04:42:30;;;;;;;2.20;1.83;;;;;;;;;;10216928;28;20250;-77
2023/03/05 04:47:32;;;;;;;6.85;1.63;;;;;;;;;;10214882;28;20275;-78
2023/03/05 04:52:33;;;;;;;3.45;2.00;;;;;;;;;;10220820;28;20222;-77
2023/03/05 04:57:35;;;;;;;1.90;1.73;;;;;;;;;;10222142;28;20226;-79
2023/03/05 05:02:36;;;;;;;3.92;1.48;;;;;;;;;;10216331;28;20289;-77
2023/03/05 05:07:37;;;;;;;1.77;1.30;;;;;;;;;;10215924;28;20223;-80
2023/03/05 05:12:38;;;;;;;3.65;1.67;;;;;;;;;;10200332;28;21064;-77
2023/03/05 05:17:39;;;;;;;2.70;1.50;;;;;;;;;;10205112;28;20230;-77
2023/03/05 05:22:41;;;;;;;1.85;1.60;;;;;;;;;;10215047;28;20225;-75
2023/03/05 05:27:42;;;;;;;2.42;1.65;;;;;;;;;;10200398;28;20373;-78
2023/03/05 05:32:43;;;;;;;2.58;1.35;;;;;;;;;;10221045;28;20794;-80
2023/03/05 05:37:44;;;;;;;3.60;1.15;;;;;;;;;;10204187;28;20256;-80
2023/03/05 05:42:45;;;;;;;4.90;1.42;;;;;;;;;;10208590;28;20249;-79
2023/03/05 05:47:46;;;;;;;1.10;1.10;;;;;;;;;;10223641;28;20232;-82
2023/03/05 05:52:47;;;;;;;3.63;1.42;;;;;;;;;;10217430;28;20227;-81
2023/03/05 05:57:48;;;;;;;1.85;1.67;;;;;;;;;;10187852;28;20400;-80
2023/03/05 06:02:51;;;;;;;0.80;0.80;;;;;;;;;;10199181;28;20245;-78
2023/03/05 06:07:52;;;;;;;1.77;0.73;;;;;;;;;;10221504;28;20218;-78
2023/03/05 06:12:53;;;;;;;1.27;0.68;;;;;;;;;;10194418;28;20257;-79
2023/03/05 06:17:54;;;;;;;1.92;0.90;;;;;;;;;;10201851;28;20206;-79
2023/03/05 06:22:55;;;;;;;3.22;0.85;;;;;;;;;;10194788;28;20234;-77
2023/03/05 06:27:56;;;;;;;0.82;0.82;;;;;;;;;;10209513;28;20222;-77
2023/03/05 06:32:58;;;;;;;0.80;0.80;;;;;;;;;;10208043;28;21006;-78
2023/03/05 06:37:59;;;;;;;3.50;1.45;;;;;;;;;;10200574;28;20227;-76
2023/03/05 06:43:00;;;;;;;2.40;0.82;;;;;;;;;;10200981;28;20214;-77
2023/03/05 06:48:01;;;;;;;2.05;0.90;;;;;;;;;;10171627;28;20217;-79
2023/03/05 06:53:02;;;;;;;4.68;0.85;;;;;;;;;;10202340;28;20218;-80
2023/03/05 06:58:03;;;;;;;1.60;1.23;;;;;;;;;;10202723;28;20652;-80
2023/03/05 07:03:05;;;;;;;1.40;1.20;;;;;;;;;;10185507;28;20240;-82
2023/03/05 07:08:06;;;;;;;2.65;0.98;;;;;;;;;;10211424;28;20217;-81
2023/03/05 07:13:07;;;;;;;2.92;0.82;;;;;;;;;;10197584;28;20212;-79
2023/03/05 07:18:09;;;;;;;1.13;1.00;;;;;;;;;;10199697;28;20217;-82
2023/03/05 07:23:10;;;;;;;3.72;1.02;;;;;;;;;;10197509;28;20212;-79
2023/03/05 07:28:11;;;;;;;4.25;0.90;;;;;;;;;;10173364;28;20753;-79
2023/03/05 07:33:12;;;;;;;2.50;0.80;;;;;;;;;;10166456;28;20249;-80
2023/03/05 07:38:13;;;;;;;3.72;0.88;;;;;;;;;;10210404;28;20301;-79
2023/03/05 07:43:14;;;;;;;1.17;1.08;;;;;;;;;;10203994;28;20293;-78
2023/03/05 07:48:16;;;;;;;4.70;0.93;;;;;;;;;;10200564;28;20968;-81
2023/03/05 07:53:17;;;;;;;1.50;0.80;;;;;;;;;;10200824;28;20300;-80
2023/03/05 07:58:19;;;;;;;2.92;1.33;;;;;;;;;;10192779;28;20693;-80
2023/03/05 08:03:20;;;;;;;1.27;1.20;;;;;;;;;;10220494;28;20245;-81
2023/03/05 08:08:21;;;;;;;3.28;0.90;;;;;;;;;;10227028;28;20221;-82
2023/03/05 08:13:22;;;;;;;0.70;0.70;;;;;;;;;;10207717;28;20218;-81
2023/03/05 08:18:23;;;;;;;3.58;1.30;;;;;;;;;;10217788;28;20210;-78
2023/03/05 08:23:25;;;;;;;1.10;0.70;;;;;;;;;;10174003;28;76388;-81
2023/03/05 08:28:26;;;;;;;1.10;1.00;;;;;;;;;;10212556;28;20257;-83
2023/03/05 08:33:27;;;;;;;1.05;0.75;;;;;;;;;;10220553;28;20752;-78
2023/03/05 08:38:28;;;;;;;0.90;0.90;;;;;;;;;;10197035;28;20867;-80
2023/03/05 08:43:30;;;;;;;1.63;1.20;;;;;;;;;;10203826;28;20219;-81
2023/03/05 08:48:33;;;;;;;2.65;1.50;;;;;;;;;;10216041;28;20250;-77
2023/03/05 08:53:34;;;;;;;1.75;1.27;;;;;;;;;;10218626;28;20220;-84
2023/03/05 08:58:35;;;;;;;6.72;1.08;;;;;;;;;;10226247;28;21580;-80
2023/03/05 09:03:37;;;;;;;0.77;0.77;;;;;;;;;;10210128;28;20244;-79
2023/03/05 09:08:39;;;;;;;3.65;1.13;;;;;;;;;;10215710;28;20222;-78
2023/03/05 09:13:40;;;;;;;1.75;0.98;;;;;;;;;;10228490;28;20253;-78
2023/03/05 09:18:41;;;;;;;4.60;1.15;;;;;;;;;;10229528;28;20604;-79
2023/03/05 09:23:43;;;;;;;0.60;0.50;;;;;;;;;;10215204;28;20277;-79
2023/03/05 09:28:44;;;;;;;1.55;0.60;;;;;;;;;;10222603;28;20222;-80
2023/03/05 09:33:47;;;;;;;0.50;0.50;;;;;;;;;;10238402;28;20316;-83
2023/03/05 09:38:48;;;;;;;2.60;0.60;;;;;;;;;;10208469;28;20229;-79
2023/03/05 09:44:10;;;;;;;0.80;0.40;;;;;;;;;;10215713;28;20735;-83
2023/03/05 09:49:20;;;;;;;0.30;0.30;;;;;;;;;;10199501;28;20221;-81
2023/03/05 10:58:22;;;;;;;0.30;0.22;;;;;;;;;;10206432;28;20952;-78
2023/03/05 11:09:59;;;;;;;0.30;0.30;;;;;;;;;;10148933;28;20246;-72
2023/03/05 11:15:25;;;;;;;0.50;0.50;;;;;;;;;;10159853;29;20206;-75
2023/03/05 11:20:26;;;;;;;1.10;0.35;;;;;;;;;;10154107;29;20284;-75
2023/03/05 11:25:27;;;;;;;0.52;0.52;;;;;;;;;;10162621;29;20230;-75
2023/03/05 11:30:30;;;;;;;1.58;0.68;;;;;;;;;;10143284;28;20219;-74
2023/03/05 11:35:34;;;;;;;2.00;0.73;;;;;;;;;;10161833;29;20229;-75
2023/03/05 11:40:36;;;;;;;1.02;0.65;;;;;;;;;;10168408;29;20218;-75
2023/03/05 11:45:38;;;;;;;0.80;0.80;;;;;;;;;;10167900;29;20772;-74
2023/03/05 11:50:41;;;;;;;1.40;0.65;;;;;;;;;;10163196;29;20281;-73
2023/03/05 11:55:44;;;;;;;2.97;0.70;;;;;;;;;;10169937;29;20235;-74
2023/03/05 12:00:47;;;;;;;1.00;0.50;;;;;;;;;;10166495;29;20242;-75
2023/03/05 12:05:51;;;;;;;3.67;0.80;;;;;;;;;;10167533;29;20214;-74
2023/03/05 12:10:52;;;;;;;0.60;0.60;;;;;;;;;;10174498;28;21046;-74
2023/03/05 12:16:06;;;;;;;1.17;0.50;;;;;;;;;;10182946;23;20195;-83
2023/03/05 12:21:14;;;;;;;2.92;0.50;;;;;;;;;;10190848;28;20326;-80
2023/03/05 12:26:15;;;;;;;0.50;0.50;;;;;;;;;;10199844;28;20250;-80
2023/03/05 12:31:36;;;;;;;0.95;0.45;;;;;;;;;;10188597;29;20214;-82
2023/03/05 12:36:37;;;;;;;0.50;0.50;;;;;;;;;;10194274;29;20229;-80
2023/03/05 12:41:39;;;;;;;0.40;0.40;;;;;;;;;;10210632;28;20899;-80
2023/03/05 12:46:41;;;;;;;1.88;0.50;;;;;;;;;;10181125;29;20211;-85
2023/03/05 12:51:43;;;;;;;0.65;0.30;;;;;;;;;;10171320;29;20234;-79
2023/03/05 12:56:46;;;;;;;0.22;0.22;;;;;;;;;;10170119;29;20223;-84
2023/03/05 13:01:53;;;;;;;0.43;0.10;;;;;;;;;;10173723;29;20305;-77
2023/03/05 13:07:03;;;;;;;0.55;0.30;;;;;;;;;;10175254;29;20308;-80
2023/03/05 13:12:10;;;;;;;0.20;0.20;;;;;;;;;;10188235;28;20277;-80
2023/03/05 13:17:28;;;;;;;0.20;0.20;;;;;;;;;;10194606;28;20238;-80
2023/03/05 13:22:29;;;;;;;3.63;0.22;;;;;;;;;;10182283;28;20218;-78
2023/03/05 13:27:34;;;;;;;0.20;0.20;;;;;;;;;;10161540;29;20214;-78
2023/03/05 13:32:35;;;;;;;3.85;0.40;;;;;;;;;;10197655;28;20226;-78
2023/03/05 13:37:37;;;;;;;1.33;0.30;;;;;;;;;;10176043;29;20817;-77
2023/03/05 13:42:38;;;;;;;0.40;0.40;;;;;;;;;;10181457;29;20566;-79
2023/03/05 13:47:40;;;;;;;1.55;0.38;;;;;;;;;;10157980;28;20219;-79
2023/03/05 13:52:41;;;;;;;2.15;0.50;;;;;;;;;;10149305;29;20299;-80
2023/03/05 13:57:43;;;;;;;0.40;0.40;;;;;;;;;;10182218;29;20249;-81
2023/03/05 14:02:44;;;;;;;2.17;0.85;;;;;;;;;;10174201;29;20232;-80
2023/03/05 14:07:50;;;;;;;1.55;0.50;;;;;;;;;;10185584;28;20746;-79
2023/03/05 14:12:51;;;;;;;0.50;0.50;;;;;;;;;;10170197;28;20215;-80
2023/03/05 14:18:07;;;;;;;0.40;0.40;;;;;;;;;;10185217;29;21035;-79
2023/03/05 14:23:26;;;;;;;1.00;0.50;;;;;;;;;;10216896;28;20215;-83
2023/03/05 14:28:27;;;;;;;0.40;0.40;;;;;;;;;;10183102;29;20270;-80
2023/03/05 14:33:32;;;;;;;1.48;0.40;;;;;;;;;;10184489;29;20275;-78
2023/03/05 14:38:33;;;;;;;0.40;0.40;;;;;;;;;;10190239;29;20223;-82
2023/03/05 14:43:34;;;;;;;0.73;0.30;;;;;;;;;;10203158;29;20219;-79
2023/03/05 14:48:36;;;;;;;0.38;0.30;;;;;;;;;;10219685;28;20666;-80
2023/03/05 14:53:39;;;;;;;0.35;0.35;;;;;;;;;;10193081;29;20716;-79
2023/03/05 14:58:40;;;;;;;1.00;0.38;;;;;;;;;;10192330;29;20214;-81
2023/03/05 15:03:42;;;;;;;0.63;0.22;;;;;;;;;;10191758;29;20270;-79
2023/03/05 15:08:43;;;;;;;0.30;0.30;;;;;;;;;;10199129;28;20253;-79
2023/03/05 15:13:44;;;;;;;1.27;0.47;;;;;;;;;;10190258;28;20219;-83
2023/03/05 15:18:45;;;;;;;0.82;0.30;;;;;;;;;;10182973;29;21012;-80
2023/03/05 15:23:47;;;;;;;0.85;0.55;;;;;;;;;;10178550;28;20337;-81
2023/03/05 15:28:48;;;;;;;1.13;0.82;;;;;;;;;;10215594;28;20237;-81
2023/03/05 15:34:41;;;;;;;0.73;0.73;;;;;;;;;;10492760;27;20581;-84
2023/03/05 15:39:42;;;;;;;2.70;0.80;;;;;;;;;;10519364;28;20289;-81
2023/03/05 15:44:43;;;;;;;0.65;0.65;;;;;;;;;;10500765;28;20201;-80
2023/03/05 15:49:44;;;;;;;2.65;0.50;;;;;;;;;;10509677;28;20235;-81
2023/03/05 15:54:45;;;;;;;1.35;0.60;;;;;;;;;;10525230;28;20255;-80
2023/03/05 15:59:47;;;;;;;1.40;1.02;;;;;;;;;;10483022;28;20331;-83
2023/03/05 16:04:48;;;;;;;0.80;0.75;;;;;;;;;;10508768;28;20205;-82
2023/03/05 16:09:50;;;;;;;0.90;0.90;;;;;;;;;;10520656;28;20312;-83
2023/03/05 16:14:51;;;;;;;1.35;1.35;;;;;;;;;;10513916;28;20304;-81
2023/03/05 16:19:54;;;;;;;2.33;2.20;;;;;;;;;;10462055;28;20207;-81
2023/03/05 16:24:55;;;;;;;2.13;1.25;;;;;;;;;;10483187;28;20216;-80
2023/03/05 16:29:57;;;;;;;3.42;0.70;;;;;;;;;;10465272;28;20313;-81
2023/03/05 16:34:58;;;;;;;0.52;0.50;;;;;;;;;;10498821;28;20216;-81
2023/03/05 16:40:01;;;;;;;3.10;0.50;;;;;;;;;;10539124;28;22060;-81
2023/03/05 16:45:02;;;;;;;0.60;0.40;;;;;;;;;;10513061;28;20304;-78
2023/03/05 16:55:55;;;;;;;0.60;0.60;;;;;;;;;;10516202;28;20217;-81
2023/03/05 17:00:55;;;;;;;1.48;0.90;;;;;;;;;;10519343;28;20244;-79
2023/03/05 17:05:56;;;;;;;0.57;0.50;;;;;;;;;;10494349;28;20226;-79
2023/03/05 17:10:58;;;;;;;4.55;1.50;;;;;;;;;;10476985;28;20218;-79
2023/03/05 17:15:59;;;;;;;1.85;0.88;;;;;;;;;;10509998;28;20217;-80
2023/03/05 17:21:01;;;;;;;1.35;1.13;;;;;;;;;;10512487;28;20228;-80
2023/03/05 17:26:05;;;;;;;4.20;2.10;;;;;;;;;;10512583;28;20336;-80
2023/03/05 17:31:06;;;;;;;2.30;1.50;;;;;;;;;;10481571;28;20719;-80
2023/03/05 17:36:12;;;;;;;10.20;7.00;;;;;;;;;;10469176;28;20213;-81
2023/03/05 17:41:14;;;;;;;6.97;5.13;;;;;;;;;;10495045;28;20226;-80
2023/03/05 17:46:15;;;;;;;3.47;2.42;;;;;;;;;;10509283;28;20229;-80
2023/03/05 17:51:16;;;;;;;2.92;2.72;;;;;;;;;;10503387;28;20218;-78
2023/03/05 17:56:20;;;;;;;2.47;2.35;;;;;;;;;;10517388;28;20682;-80
2023/03/05 18:01:26;;;;;;;1.40;1.30;;;;;;;;;;10526734;28;20205;-81
2023/03/05 18:06:27;;;;;;;4.90;1.42;;;;;;;;;;10506838;28;20218;-81
2023/03/05 18:11:29;;;;;;;1.42;1.33;;;;;;;;;;10470292;28;20228;-79
2023/03/05 18:16:30;;;;;;;2.22;1.90;;;;;;;;;;10470888;28;20218;-79
2023/03/05 18:21:31;;;;;;;2.80;2.53;;;;;;;;;;10475016;28;20293;-80
2023/03/05 18:26:32;;;;;;;2.00;2.00;;;;;;;;;;10459492;28;20989;-80
2023/03/05 18:31:33;;;;;;;1.23;1.13;;;;;;;;;;10449569;28;20910;-81
2023/03/05 18:36:34;;;;;;;5.07;1.58;;;;;;;;;;10476730;28;20210;-80
2023/03/05 18:41:36;;;;;;;3.00;2.10;;;;;;;;;;10490223;28;20305;-81
2023/03/05 18:46:37;;;;;;;2.10;1.90;;;;;;;;;;10477296;28;20427;-80
2023/03/05 18:51:39;;;;;;;2.28;2.08;;;;;;;;;;10495505;28;20210;-80
2023/03/05 18:56:40;;;;;;;1.23;1.13;;;;;;;;;;10486186;28;20812;-80
2023/03/05 19:01:43;;;;;;;1.13;1.05;;;;;;;;;;10501068;28;20308;-81
2023/03/05 19:06:44;;;;;;;0.90;0.90;;;;;;;;;;10522888;28;20218;-79
2023/03/05 19:11:46;;;;;;;4.65;2.58;;;;;;;;;;10524741;28;20218;-81
2023/03/05 19:16:47;;;;;;;6.93;4.68;;;;;;;;;;10482100;28;20241;-79
2023/03/05 19:21:52;;;;;;;1.75;0.85;;;;;;;;;;10466390;28;20223;-81
2023/03/05 19:26:54;;;;;;;0.80;0.80;;;;;;;;;;10499444;28;20248;-84
2023/03/05 19:31:55;;;;;;;1.63;1.17;;;;;;;;;;10507510;28;20245;-82
2023/03/05 19:36:57;;;;;;;0.93;0.88;;;;;;;;;;10495487;28;20724;-81
2023/03/05 19:41:58;;;;;;;1.10;1.00;;;;;;;;;;10468456;28;20319;-83
2023/03/05 19:46:59;;;;;;;0.93;0.93;;;;;;;;;;10494061;28;20279;-80
2023/03/05 19:52:00;;;;;;;3.88;0.98;;;;;;;;;;10501184;28;20690;-82
2023/03/05 19:57:01;;;;;;;0.95;0.93;;;;;;;;;;10518464;28;20217;-82
2023/03/05 20:02:02;;;;;;;1.33;1.30;;;;;;;;;;10515269;28;20793;-81
2023/03/05 20:07:05;;;;;;;1.40;1.30;;;;;;;;;;10464488;28;21144;-81
2023/03/05 20:12:07;;;;;;;3.65;1.48;;;;;;;;;;10511616;28;20316;-82
2023/03/05 20:17:08;;;;;;;1.25;1.15;;;;;;;;;;10502981;28;20303;-82
2023/03/05 20:22:09;;;;;;;0.90;0.90;;;;;;;;;;10514561;28;20249;-82
2023/03/05 20:27:10;;;;;;;1.48;1.02;;;;;;;;;;10518569;28;20255;-84
2023/03/05 20:32:11;;;;;;;1.33;1.13;;;;;;;;;;10466445;28;20229;-82
2023/03/05 20:37:12;;;;;;;1.20;1.10;;;;;;;;;;10477674;28;20308;-80
2023/03/05 20:42:13;;;;;;;1.02;0.95;;;;;;;;;;10499921;28;20290;-81
2023/03/05 20:47:39;;;;;;;1.92;0.90;;;;;;;;;;10501483;28;20226;-81
2023/03/05 20:52:40;;;;;;;1.10;1.10;;;;;;;;;;10453082;28;20295;-81
2023/03/05 20:57:42;;;;;;;3.95;0.90;;;;;;;;;;10460586;28;20815;-80
2023/03/05 21:02:43;;;;;;;2.08;0.90;;;;;;;;;;10456647;28;20218;-82
2023/03/05 21:07:45;;;;;;;0.80;0.80;;;;;;;;;;10451034;28;20252;-83
2023/03/05 21:12:47;;;;;;;0.88;0.88;;;;;;;;;;10473427;28;20238;-81
2023/03/05 21:17:48;;;;;;;2.05;1.05;;;;;;;;;;10468257;28;20206;-81
2023/03/05 21:22:50;;;;;;;0.68;0.68;;;;;;;;;;10475845;28;20710;-81
2023/03/05 21:27:54;;;;;;;1.73;0.60;;;;;;;;;;10470593;28;20218;-80
2023/03/05 21:32:56;;;;;;;0.60;0.60;;;;;;;;;;10494305;28;20225;-82
2023/03/05 21:37:58;;;;;;;1.38;0.60;;;;;;;;;;10498796;28;20224;-81
2023/03/05 21:42:59;;;;;;;4.68;1.13;;;;;;;;;;10489487;28;20234;-82
2023/03/05 21:48:00;;;;;;;3.13;0.75;;;;;;;;;;10490244;28;20697;-81
2023/03/05 21:53:01;;;;;;;0.85;0.82;;;;;;;;;;10511871;28;20228;-82
2023/03/05 21:58:02;;;;;;;0.90;0.90;;;;;;;;;;10511550;28;20225;-81
2023/03/05 22:03:03;;;;;;;1.00;0.75;;;;;;;;;;10495882;28;20942;-81
2023/03/05 22:08:04;;;;;;;0.93;0.80;;;;;;;;;;10512678;28;20738;-80
2023/03/05 22:18:11;;;;;;;2.80;0.70;;;;;;;;;;10513635;28;20291;-82
2023/03/05 22:23:12;;;;;;;2.55;0.93;;;;;;;;;;10513119;28;20648;-81
2023/03/05 22:28:13;;;;;;;1.15;0.60;;;;;;;;;;10510439;28;20241;-84
2023/03/05 22:33:14;;;;;;;1.80;1.00;;;;;;;;;;10481808;28;20833;-83
2023/03/05 22:38:15;;;;;;;2.28;0.60;;;;;;;;;;10478508;28;20210;-82
2023/03/05 22:43:17;;;;;;;3.63;0.98;;;;;;;;;;10471359;28;20210;-81
2023/03/05 22:48:18;;;;;;;1.15;0.80;;;;;;;;;;10476308;28;20292;-82
2023/03/05 22:53:19;;;;;;;0.82;0.70;;;;;;;;;;10488408;28;20444;-81
2023/03/05 22:58:20;;;;;;;6.38;0.90;;;;;;;;;;10471517;28;20238;-85
2023/03/05 23:03:21;;;;;;;0.52;0.50;;;;;;;;;;10473026;28;20309;-82
2023/03/05 23:08:22;;;;;;;1.95;0.82;;;;;;;;;;10456922;28;20591;-81
2023/03/05 23:13:23;;;;;;;0.70;0.70;;;;;;;;;;10473999;28;20682;-82
2023/03/05 23:18:24;;;;;;;0.85;0.55;;;;;;;;;;10473082;28;20214;-81
2023/03/05 23:23:25;;;;;;;0.73;0.73;;;;;;;;;;10465874;28;20222;-82
2023/03/05 23:28:26;;;;;;;0.70;0.70;;;;;;;;;;10504009;28;20292;-81
2023/03/05 23:33:27;;;;;;;1.85;0.80;;;;;;;;;;10512024;28;20298;-81
2023/03/05 23:38:29;;;;;;;2.67;0.80;;;;;;;;;;10485608;28;20245;-81
2023/03/05 23:43:30;;;;;;;3.50;0.82;;;;;;;;;;10506691;28;21011;-82
2023/03/05 23:48:31;;;;;;;1.83;0.80;;;;;;;;;;10517186;28;20205;-83
2023/03/05 23:53:32;;;;;;;1.58;0.55;;;;;;;;;;10517037;28;20228;-81
2023/03/05 23:58:34;;;;;;;0.52;0.52;;;;;;;;;;10533966;28;20579;-80
